Time;durP1;ratioP1;P1;durP2;ratioP2;P2;SDS_P1;SDS_P2;PMS_P1;PMS_P2;Temp;Humidity;BMP_temperature;BMP_pressure;BME280_temperature;BME280_humidity;BME280_pressure;Samples;Min_cycle;Max_cycle;Signal;HPM_P1;HPM_P2
2021/07/01 00:02:01;;;;;;;0.20;0.20;;;;;;;16.57;57.36;99068.72;5035160;28;20614;-89
2021/07/01 00:04:28;;;;;;;0.53;0.20;;;;;;;16.40;57.27;99049.28;5036302;28;20515;-87
2021/07/01 00:06:55;;;;;;;0.30;0.20;;;;;;;16.47;56.44;99058.72;5019308;28;20230;-91
2021/07/01 00:09:24;;;;;;;0.20;0.20;;;;;;;16.47;56.95;99061.44;5038558;28;20225;-90
2021/07/01 00:11:52;;;;;;;0.10;0.10;;;;;;;16.51;56.49;99056.31;5035319;28;20230;-90
2021/07/01 00:14:19;;;;;;;0.20;0.20;;;;;;;16.46;56.81;99062.53;5043862;28;20312;-90
2021/07/01 00:16:47;;;;;;;0.20;0.20;;;;;;;16.35;57.58;99062.81;5055456;28;20294;-90
2021/07/01 00:19:15;;;;;;;0.20;0.20;;;;;;;16.24;57.67;99051.97;5055277;28;20311;-83
2021/07/01 00:21:42;;;;;;;0.40;0.30;;;;;;;16.16;58.23;99049.00;5038229;28;20225;-90
2021/07/01 00:24:09;;;;;;;0.20;0.10;;;;;;;16.06;58.60;99047.13;5054482;28;20292;-88
2021/07/01 00:26:37;;;;;;;0.10;0.10;;;;;;;16.01;58.85;99035.47;5038266;28;20232;-86
2021/07/01 00:29:04;;;;;;;0.10;0.10;;;;;;;16.01;59.03;99040.88;5021892;28;20229;-83
2021/07/01 00:31:31;;;;;;;0.10;0.10;;;;;;;15.93;58.88;99019.81;5021656;28;20632;-84
2021/07/01 00:34:00;;;;;;;1.20;0.20;;;;;;;15.89;60.05;99033.06;5038413;28;20244;-87
2021/07/01 00:36:27;;;;;;;0.20;0.20;;;;;;;15.74;60.41;99012.22;5038300;28;20232;-88
2021/07/01 00:38:54;;;;;;;0.20;0.20;;;;;;;15.76;60.50;99017.38;5054743;28;20260;-89
2021/07/01 00:41:21;;;;;;;0.83;0.10;;;;;;;15.78;59.65;99010.63;5033726;28;20239;-91
2021/07/01 00:43:48;;;;;;;0.10;0.10;;;;;;;15.75;59.60;99010.34;5018227;28;20252;-88
2021/07/01 00:46:15;;;;;;;0.70;0.30;;;;;;;16.02;57.73;99010.91;5018103;28;20600;-87
2021/07/01 00:48:42;;;;;;;0.23;0.20;;;;;;;15.90;58.27;99009.56;5052900;28;20229;-89
2021/07/01 00:51:09;;;;;;;0.47;0.20;;;;;;;15.86;57.86;99012.00;5037790;28;20629;-86
2021/07/01 00:53:37;;;;;;;0.10;0.10;;;;;;;15.95;57.38;99012.25;5034383;28;20218;-89
2021/07/01 00:56:05;;;;;;;0.13;0.13;;;;;;;15.88;57.66;99014.41;5034487;28;20225;-87
2021/07/01 00:58:32;;;;;;;0.53;0.20;;;;;;;15.75;58.22;99002.25;5018631;28;20580;-83
2021/07/01 01:03:26;;;;;;;0.20;0.20;;;;;;;15.62;59.06;98998.19;5038336;28;20229;-91
2021/07/01 01:05:52;;;;;;;0.10;0.10;;;;;;;15.69;59.12;99009.53;5038366;28;20240;-90
2021/07/01 01:08:19;;;;;;;0.30;0.10;;;;;;;15.66;59.08;98999.25;5054487;28;20229;-89
2021/07/01 01:10:46;;;;;;;0.10;0.10;;;;;;;15.70;58.78;98996.84;5038307;28;20315;-90
2021/07/01 01:13:44;;;;;;;0.63;0.10;;;;;;;15.64;58.60;98992.50;5044425;28;20248;-91
2021/07/01 01:16:26;;;;;;;0.37;0.20;;;;;;;15.71;57.55;98993.06;5054140;28;20225;-87
2021/07/01 01:18:53;;;;;;;0.20;0.20;;;;;;;15.70;57.12;98986.84;5021989;28;20238;-92
2021/07/01 01:21:24;;;;;;;0.10;0.10;;;;;;;15.79;57.03;98987.94;5022024;28;20711;-85
2021/07/01 01:23:52;;;;;;;0.20;0.10;;;;;;;15.86;56.92;98995.78;5034765;28;20251;-86
2021/07/01 01:26:19;;;;;;;0.20;0.20;;;;;;;16.00;56.45;98985.25;5035267;28;20599;-87
2021/07/01 01:28:50;;;;;;;0.20;0.20;;;;;;;16.05;56.28;98991.44;5034602;28;20232;-91
2021/07/01 01:31:18;;;;;;;0.10;0.10;;;;;;;16.00;56.52;98988.78;5033489;28;20224;-89
2021/07/01 01:33:45;;;;;;;0.17;0.17;;;;;;;16.06;56.57;98993.06;5028235;28;20230;-85
2021/07/01 01:36:13;;;;;;;0.20;0.20;;;;;;;16.09;56.46;98995.25;5021429;28;20328;-88
2021/07/01 01:38:43;;;;;;;0.20;0.20;;;;;;;16.02;56.59;98993.88;5038347;28;20225;-91
2021/07/01 01:41:26;;;;;;;0.40;0.20;;;;;;;15.99;56.75;98994.44;5057051;28;20270;-92
2021/07/01 01:43:54;;;;;;;0.20;0.20;;;;;;;16.01;56.71;98982.25;5040872;28;20670;-91
2021/07/01 01:46:21;;;;;;;0.20;0.20;;;;;;;16.05;56.36;98986.03;5041495;28;20650;-90
2021/07/01 01:48:53;;;;;;;0.10;0.10;;;;;;;16.00;56.95;98987.94;5041444;28;20719;-91
2021/07/01 01:51:21;;;;;;;0.20;0.20;;;;;;;16.17;55.80;98985.78;5057217;28;20296;-82
2021/07/01 01:53:57;;;;;;;0.27;0.27;;;;;;;16.03;56.35;98974.72;5036751;28;20278;-91
2021/07/01 01:56:24;;;;;;;0.30;0.30;;;;;;;15.96;57.05;98982.25;5021156;28;20229;-90
2021/07/01 01:58:51;;;;;;;0.20;0.20;;;;;;;15.82;58.01;98971.19;5045576;28;20230;-86
2021/07/01 02:01:36;;;;;;;0.70;0.30;;;;;;;15.72;58.50;98976.56;5057694;28;20231;-86
2021/07/01 02:04:19;;;;;;;0.83;0.30;;;;;;;15.72;58.67;98965.75;5028914;28;20221;-90
2021/07/01 02:06:49;;;;;;;0.20;0.20;;;;;;;15.62;58.82;98970.38;5057945;28;20239;-89
2021/07/01 02:09:19;;;;;;;0.20;0.20;;;;;;;15.70;58.16;98977.94;5041220;28;20230;-87
2021/07/01 02:11:50;;;;;;;0.20;0.20;;;;;;;15.72;57.77;98981.19;5056952;28;20274;-89
2021/07/01 02:14:19;;;;;;;0.20;0.20;;;;;;;15.68;57.99;98980.06;5058159;28;20318;-91
2021/07/01 02:16:55;;;;;;;0.30;0.30;;;;;;;15.63;57.91;98980.88;5042164;28;20234;-86
2021/07/01 02:19:23;;;;;;;0.20;0.20;;;;;;;15.69;57.76;98987.09;5024285;28;20237;-90
2021/07/01 02:21:50;;;;;;;0.87;0.30;;;;;;;15.57;57.85;98983.84;5024010;28;20311;-89
2021/07/01 02:24:17;;;;;;;0.23;0.23;;;;;;;15.50;58.61;98981.38;5035534;28;20808;-87
2021/07/01 02:26:44;;;;;;;0.20;0.20;;;;;;;15.38;58.65;98970.03;5036849;28;20568;-85
2021/07/01 02:29:12;;;;;;;0.20;0.20;;;;;;;15.34;59.49;98990.53;5037161;28;20656;-87
2021/07/01 02:31:58;;;;;;;0.20;0.20;;;;;;;15.19;59.64;98980.50;5042840;28;20695;-89
2021/07/01 02:34:26;;;;;;;0.40;0.30;;;;;;;15.15;60.21;98994.78;5056209;28;20224;-88
2021/07/01 02:37:13;;;;;;;0.10;0.10;;;;;;;15.13;60.09;98996.91;5036420;28;20248;-90
2021/07/01 02:40:12;;;;;;;0.67;0.30;;;;;;;15.06;60.63;99007.97;5032256;28;20233;-82
2021/07/01 02:42:51;;;;;;;0.40;0.20;;;;;;;14.96;60.83;99011.44;5038190;28;20229;-88
2021/07/01 02:45:18;;;;;;;0.73;0.30;;;;;;;14.84;61.29;99008.13;5003196;28;20230;-87
2021/07/01 02:48:07;;;;;;;3.70;0.33;;;;;;;14.75;61.61;99008.88;5021979;28;20648;-80
2021/07/01 02:50:41;;;;;;;0.20;0.20;;;;;;;14.70;62.15;99003.44;5055527;28;20313;-82
2021/07/01 02:53:10;;;;;;;0.40;0.20;;;;;;;14.66;62.82;99011.25;5055724;28;20232;-84
2021/07/01 02:55:39;;;;;;;1.30;0.20;;;;;;;14.71;63.31;99013.16;5056916;28;20230;-88
2021/07/01 02:58:06;;;;;;;0.47;0.20;;;;;;;14.60;63.35;99020.41;5039175;28;20228;-85
2021/07/01 03:00:53;;;;;;;0.47;0.30;;;;;;;14.63;62.57;99024.44;5055807;28;20682;-79
2021/07/01 03:03:19;;;;;;;0.60;0.30;;;;;;;14.66;62.68;99040.09;5039482;28;20529;-87
2021/07/01 03:05:54;;;;;;;0.40;0.30;;;;;;;14.66;62.03;99027.44;5056584;28;20237;-85
2021/07/01 03:08:21;;;;;;;0.37;0.30;;;;;;;14.68;62.38;99043.34;5023165;28;20642;-86
2021/07/01 03:10:51;;;;;;;0.40;0.40;;;;;;;14.65;62.53;99051.97;5055094;28;20576;-83
2021/07/01 03:13:19;;;;;;;0.50;0.50;;;;;;;14.57;63.30;99055.13;5039818;28;20227;-84
2021/07/01 03:15:46;;;;;;;1.03;0.40;;;;;;;14.50;63.59;99045.41;5023452;28;20576;-92
2021/07/01 03:18:13;;;;;;;1.53;0.50;;;;;;;14.51;63.95;99063.19;5039171;28;20262;-91
2021/07/01 03:21:01;;;;;;;1.60;0.40;;;;;;;14.49;64.05;99067.22;5053523;28;20231;-88
2021/07/01 03:23:32;;;;;;;1.60;0.23;;;;;;;14.50;63.91;99066.97;5040334;28;20234;-89
2021/07/01 03:26:00;;;;;;;1.07;0.50;;;;;;;14.56;64.03;99080.50;5023264;28;20282;-87
2021/07/01 03:28:27;;;;;;;0.40;0.37;;;;;;;14.50;63.60;99071.53;5055562;28;20662;-84
2021/07/01 03:30:54;;;;;;;0.60;0.50;;;;;;;14.49;64.54;99076.13;5039005;28;20241;-88
2021/07/01 03:33:20;;;;;;;0.57;0.40;;;;;;;14.47;64.60;99077.44;5055743;28;20223;-83
2021/07/01 03:35:47;;;;;;;0.80;0.70;;;;;;;14.48;64.60;99074.50;5039253;28;20238;-89
2021/07/01 03:38:44;;;;;;;1.90;0.43;;;;;;;14.65;63.20;99079.72;5019828;28;20232;-89
2021/07/01 03:41:17;;;;;;;0.30;0.30;;;;;;;14.88;61.98;99073.16;5039556;28;20227;-83
2021/07/01 03:43:48;;;;;;;0.60;0.60;;;;;;;15.04;61.31;99082.94;5022734;28;20612;-92
2021/07/01 03:46:17;;;;;;;0.30;0.30;;;;;;;15.08;61.33;99085.91;5023580;28;20231;-89
2021/07/01 03:48:44;;;;;;;1.37;0.40;;;;;;;15.32;59.95;99082.53;5055847;28;20258;-89
2021/07/01 03:51:34;;;;;;;0.80;0.40;;;;;;;15.40;59.69;99087.44;5023466;28;20219;-83
2021/07/01 03:54:23;;;;;;;1.20;0.70;;;;;;;15.57;58.64;99076.47;5041668;28;20570;-87
2021/07/01 03:56:50;;;;;;;0.57;0.50;;;;;;;15.84;57.58;99097.88;5055827;28;20232;-82
2021/07/01 03:59:25;;;;;;;0.80;0.60;;;;;;;16.00;57.34;99093.31;5035689;28;20228;-93
2021/07/01 04:02:10;;;;;;;0.30;0.30;;;;;;;16.20;57.15;99093.34;5043701;28;20241;-86
2021/07/01 04:04:37;;;;;;;0.63;0.30;;;;;;;17.16;53.93;99106.81;5038242;28;20228;-83
2021/07/01 04:07:05;;;;;;;1.13;0.30;;;;;;;19.23;48.77;99107.34;5038854;28;20606;-92
2021/07/01 04:09:33;;;;;;;0.33;0.30;;;;;;;20.52;45.05;99102.38;5055069;28;20316;-82
2021/07/01 04:12:26;;;;;;;0.40;0.40;;;;;;;20.83;44.38;99107.28;5054666;28;20251;-87
2021/07/01 04:15:11;;;;;;;0.20;0.20;;;;;;;20.96;42.23;99099.16;5041582;28;20530;-91
2021/07/01 04:17:57;;;;;;;0.33;0.20;;;;;;;21.09;42.83;99113.88;5041485;28;20310;-87
2021/07/01 04:20:42;;;;;;;0.57;0.30;;;;;;;21.04;43.16;99114.78;5055195;28;20695;-86
2021/07/01 04:23:27;;;;;;;1.83;0.23;;;;;;;21.04;43.90;99114.78;5054205;28;20225;-84
2021/07/01 04:26:13;;;;;;;0.57;0.40;;;;;;;21.14;43.84;99115.78;5035056;28;20712;-85
2021/07/01 04:28:42;;;;;;;0.30;0.30;;;;;;;21.48;43.03;99116.97;5019082;28;20232;-86
2021/07/01 04:31:11;;;;;;;0.20;0.20;;;;;;;22.16;42.21;99116.09;5025371;28;20305;-86
2021/07/01 04:33:51;;;;;;;0.20;0.20;;;;;;;22.70;41.25;99239.91;5055091;28;20567;-84
2021/07/01 04:36:23;;;;;;;0.50;0.37;;;;;;;23.44;39.75;99268.44;5054734;28;20312;-79
2021/07/01 04:38:50;;;;;;;0.20;0.20;;;;;;;24.04;39.02;99248.75;5054889;28;20538;-82
2021/07/01 04:41:20;;;;;;;0.80;0.40;;;;;;;24.13;38.63;99145.59;5019246;28;20226;-89
2021/07/01 04:43:50;;;;;;;0.87;0.33;;;;;;;23.28;40.88;99125.06;5054094;28;20233;-84
2021/07/01 04:46:18;;;;;;;0.37;0.30;;;;;;;22.95;42.19;99121.84;5037981;28;20218;-92
2021/07/01 04:48:53;;;;;;;0.40;0.30;;;;;;;22.77;42.42;99125.56;5023662;28;20252;-90
2021/07/01 04:51:20;;;;;;;0.57;0.30;;;;;;;22.28;43.42;99116.38;5038522;28;20249;-81
2021/07/01 04:54:06;;;;;;;0.20;0.20;;;;;;;22.20;43.88;99110.84;5054351;28;20230;-87
2021/07/01 04:56:51;;;;;;;0.40;0.20;;;;;;;22.20;43.58;99114.38;5054630;28;20247;-89
2021/07/01 04:59:20;;;;;;;0.30;0.30;;;;;;;21.61;43.86;99126.25;5037150;28;20244;-84
2021/07/01 05:01:55;;;;;;;0.50;0.30;;;;;;;21.37;44.12;99120.22;5053967;28;20222;-79
2021/07/01 05:04:44;;;;;;;0.67;0.30;;;;;;;21.46;43.74;99119.19;5032933;28;20248;-83
2021/07/01 05:07:12;;;;;;;0.87;0.20;;;;;;;21.47;44.01;99125.44;5038057;28;20315;-80
2021/07/01 05:09:42;;;;;;;0.60;0.30;;;;;;;21.51;43.48;99121.00;5054259;28;20226;-83
2021/07/01 05:12:28;;;;;;;0.33;0.20;;;;;;;21.51;44.12;99105.47;5054400;28;20232;-81
2021/07/01 05:14:56;;;;;;;0.10;0.10;;;;;;;21.42;43.82;99101.84;5038895;28;20233;-82
2021/07/01 05:17:23;;;;;;;0.70;0.20;;;;;;;21.59;43.54;99128.50;5051142;28;20231;-90
2021/07/01 05:19:51;;;;;;;0.93;0.23;;;;;;;21.66;43.66;99109.78;5025708;28;20229;-87
2021/07/01 05:22:21;;;;;;;0.33;0.30;;;;;;;21.67;43.61;99125.03;5058149;28;20287;-86
2021/07/01 05:25:08;;;;;;;0.50;0.17;;;;;;;22.05;43.04;99135.72;5057771;28;20385;-84
2021/07/01 05:27:53;;;;;;;2.03;0.20;;;;;;;22.04;42.84;99131.38;5044577;28;20601;-90
2021/07/01 05:30:55;;;;;;;0.60;0.30;;;;;;;22.38;41.75;99154.34;4997672;28;20235;-87
2021/07/01 05:33:41;;;;;;;0.53;0.20;;;;;;;22.46;42.16;99155.50;5054225;28;20337;-85
2021/07/01 05:36:08;;;;;;;1.60;0.30;;;;;;;22.30;41.90;99148.81;5041263;28;20229;-86
2021/07/01 05:38:35;;;;;;;0.60;0.40;;;;;;;22.57;41.26;99159.63;5058349;28;20218;-87
2021/07/01 05:41:02;;;;;;;0.20;0.20;;;;;;;22.74;41.06;99156.25;5021184;28;20221;-88
2021/07/01 05:43:29;;;;;;;0.77;0.20;;;;;;;22.67;41.32;99134.00;5038788;28;20228;-85
2021/07/01 05:45:56;;;;;;;0.27;0.20;;;;;;;22.69;41.85;99148.13;5040930;28;20254;-89
2021/07/01 05:48:25;;;;;;;1.83;0.40;;;;;;;22.54;42.70;99157.50;5057592;28;20233;-83
2021/07/01 05:51:01;;;;;;;0.63;0.30;;;;;;;22.25;42.53;99157.13;5025254;28;20239;-83
2021/07/01 05:53:39;;;;;;;0.40;0.20;;;;;;;22.23;43.31;99162.88;5044410;28;20235;-86
2021/07/01 05:56:06;;;;;;;0.20;0.20;;;;;;;21.97;43.10;99161.81;5022287;28;20236;-82
2021/07/01 05:58:33;;;;;;;0.80;0.20;;;;;;;21.84;43.27;99157.13;5053408;28;20222;-84
2021/07/01 06:01:00;;;;;;;0.67;0.20;;;;;;;21.91;43.63;99158.34;5057919;28;20315;-82
2021/07/01 06:03:27;;;;;;;1.13;0.30;;;;;;;21.62;43.15;99171.50;5023804;28;20311;-87
2021/07/01 06:06:11;;;;;;;0.17;0.17;;;;;;;21.68;42.76;99167.56;5038505;28;20223;-79
2021/07/01 06:09:04;;;;;;;0.20;0.20;;;;;;;21.90;41.83;99185.91;5034983;28;20234;-80
2021/07/01 06:11:36;;;;;;;0.30;0.30;;;;;;;21.93;42.52;99188.88;5037069;28;20561;-82
2021/07/01 06:14:06;;;;;;;0.37;0.20;;;;;;;22.42;41.55;99187.28;5023674;28;20214;-83
2021/07/01 06:16:35;;;;;;;0.20;0.20;;;;;;;22.05;42.46;99188.38;5041305;28;20628;-88
2021/07/01 06:19:04;;;;;;;0.50;0.20;;;;;;;22.14;42.20;99197.44;5040940;28;20229;-87
2021/07/01 06:21:32;;;;;;;0.20;0.20;;;;;;;21.85;43.03;99194.19;5040266;28;20226;-86
2021/07/01 06:23:58;;;;;;;0.20;0.20;;;;;;;21.52;43.46;99177.13;5053289;28;20234;-87
2021/07/01 06:26:28;;;;;;;0.30;0.30;;;;;;;21.47;44.12;99182.69;5038450;28;20715;-88
2021/07/01 06:28:56;;;;;;;0.30;0.20;;;;;;;21.62;44.56;99187.84;5030862;28;20297;-85
2021/07/01 06:31:23;;;;;;;0.40;0.30;;;;;;;21.39;44.05;99177.94;5057057;28;20237;-88
2021/07/01 06:33:50;;;;;;;0.20;0.20;;;;;;;21.31;44.50;99178.63;5023309;28;20227;-85
2021/07/01 06:36:19;;;;;;;0.83;0.20;;;;;;;21.36;44.44;99182.09;5020208;28;20237;-87
2021/07/01 06:39:05;;;;;;;1.80;0.50;;;;;;;21.51;44.18;99200.03;5037354;28;20241;-89
2021/07/01 06:41:53;;;;;;;0.30;0.30;;;;;;;21.86;43.47;99193.09;5023315;28;20245;-86
2021/07/01 06:44:52;;;;;;;0.40;0.40;;;;;;;22.39;42.49;99174.25;4995629;28;20225;-86
2021/07/01 06:47:38;;;;;;;0.83;0.30;;;;;;;22.89;41.54;99182.38;5036462;28;20241;-82
2021/07/01 06:50:29;;;;;;;0.60;0.30;;;;;;;22.79;41.43;99195.16;5045147;28;20232;-83
2021/07/01 06:53:15;;;;;;;2.00;0.30;;;;;;;22.59;42.37;99201.06;5042452;28;20263;-86
2021/07/01 06:56:02;;;;;;;0.20;0.20;;;;;;;22.29;42.57;99204.50;5030987;28;20223;-83
2021/07/01 06:58:36;;;;;;;0.30;0.30;;;;;;;22.09;42.12;99197.56;5029298;28;20651;-84
2021/07/01 07:01:03;;;;;;;1.53;0.20;;;;;;;22.13;43.12;99197.75;5030812;28;20249;-81
2021/07/01 07:03:31;;;;;;;0.57;0.30;;;;;;;21.63;43.99;99210.47;5035147;28;20214;-86
2021/07/01 07:06:00;;;;;;;0.77;0.30;;;;;;;21.57;44.55;99203.47;5034740;28;20511;-82
2021/07/01 07:08:28;;;;;;;0.27;0.27;;;;;;;21.48;44.72;99212.38;5055418;28;20685;-84
2021/07/01 07:10:55;;;;;;;0.40;0.30;;;;;;;21.59;44.64;99218.44;5047998;28;20314;-84
2021/07/01 07:13:25;;;;;;;1.10;0.30;;;;;;;21.35;45.16;99201.44;5020733;28;20313;-85
2021/07/01 07:15:59;;;;;;;0.40;0.40;;;;;;;21.22;45.17;99205.78;5032007;28;20318;-87
2021/07/01 07:18:29;;;;;;;0.20;0.20;;;;;;;21.09;45.32;99215.47;5052039;28;20227;-86
2021/07/01 07:20:57;;;;;;;1.07;0.33;;;;;;;21.12;45.66;99195.00;5019430;28;20225;-85
2021/07/01 07:23:33;;;;;;;0.77;0.30;;;;;;;21.12;46.48;99196.94;5034358;28;20237;-84
2021/07/01 07:26:14;;;;;;;0.87;0.40;;;;;;;21.59;44.84;99196.63;5030474;28;20221;-85
2021/07/01 07:28:49;;;;;;;0.47;0.30;;;;;;;21.51;43.09;99195.41;5052520;28;20221;-85
2021/07/01 07:31:23;;;;;;;0.83;0.20;;;;;;;22.07;42.85;99188.84;5017984;28;20798;-87
2021/07/01 07:34:00;;;;;;;0.77;0.30;;;;;;;22.20;43.37;99192.69;5048731;28;20225;-87
2021/07/01 07:36:28;;;;;;;0.40;0.23;;;;;;;22.16;41.58;99172.59;5017657;28;20305;-87
2021/07/01 07:38:56;;;;;;;0.63;0.30;;;;;;;21.87;42.66;99183.81;5054752;28;20283;-85
2021/07/01 07:41:24;;;;;;;0.23;0.23;;;;;;;22.13;42.26;99189.56;5054494;28;20234;-87
2021/07/01 07:43:51;;;;;;;2.50;0.40;;;;;;;22.43;42.22;99197.09;5037871;28;20324;-86
2021/07/01 07:46:21;;;;;;;0.37;0.37;;;;;;;22.81;41.54;99186.66;5037882;28;20229;-84
2021/07/01 07:48:49;;;;;;;1.70;0.40;;;;;;;23.00;40.78;99197.41;5037998;28;20236;-82
2021/07/01 07:51:17;;;;;;;1.30;0.40;;;;;;;23.24;39.55;99195.94;5052892;28;20261;-84
2021/07/01 07:53:53;;;;;;;0.40;0.30;;;;;;;23.49;39.28;99190.94;5026979;28;20706;-83
2021/07/01 07:56:36;;;;;;;0.37;0.37;;;;;;;23.35;38.99;99188.28;5018057;28;20226;-84
2021/07/01 07:59:07;;;;;;;1.17;0.30;;;;;;;23.10;39.78;99194.38;5019782;28;20226;-87
2021/07/01 08:01:35;;;;;;;0.77;0.20;;;;;;;23.09;39.14;99187.34;5034671;28;20241;-86
2021/07/01 08:04:05;;;;;;;0.30;0.30;;;;;;;22.81;39.90;99194.84;5018065;28;20302;-86
2021/07/01 08:06:33;;;;;;;1.03;0.20;;;;;;;22.80;40.20;99185.03;5021701;28;20212;-88
2021/07/01 08:09:01;;;;;;;0.20;0.20;;;;;;;23.19;39.25;99190.59;5021555;28;20584;-87
2021/07/01 08:11:30;;;;;;;0.23;0.23;;;;;;;23.45;39.16;99196.25;5054163;28;20231;-88
2021/07/01 08:13:59;;;;;;;0.77;0.20;;;;;;;23.77;38.50;99200.53;5054621;28;20232;-88
2021/07/01 08:16:26;;;;;;;1.00;0.60;;;;;;;23.81;39.22;99197.97;5038110;28;20232;-88
2021/07/01 08:18:53;;;;;;;0.33;0.33;;;;;;;23.92;38.30;99197.38;5021921;28;20232;-88
2021/07/01 08:21:21;;;;;;;0.40;0.40;;;;;;;23.95;37.92;99193.19;5045561;28;20252;-87
2021/07/01 08:23:48;;;;;;;0.87;0.23;;;;;;;24.72;36.74;99198.81;5036907;28;20274;-87
2021/07/01 08:26:17;;;;;;;0.40;0.40;;;;;;;24.99;36.96;99194.94;5053928;28;20241;-86
2021/07/01 08:28:44;;;;;;;0.77;0.23;;;;;;;25.17;36.20;99180.06;5021501;28;20287;-88
2021/07/01 08:31:16;;;;;;;0.70;0.30;;;;;;;25.35;35.46;99194.53;5021346;28;20785;-87
2021/07/01 08:33:45;;;;;;;0.40;0.40;;;;;;;25.76;35.18;99204.88;5036130;28;20240;-86
2021/07/01 08:36:22;;;;;;;1.02;0.40;;;;;;;25.94;36.24;99214.66;5054296;28;20252;-86
2021/07/01 08:38:51;;;;;;;0.98;0.40;;;;;;;25.71;34.61;99205.09;5037831;28;20228;-81
2021/07/01 08:41:29;;;;;;;0.50;0.30;;;;;;;25.92;33.77;99208.69;5054632;28;20231;-87
2021/07/01 08:44:01;;;;;;;0.35;0.20;;;;;;;25.96;33.93;99208.81;5020291;28;20232;-84
2021/07/01 08:46:50;;;;;;;0.32;0.25;;;;;;;26.12;33.66;99196.97;5053818;28;20255;-86
2021/07/01 08:49:53;;;;;;;0.75;0.43;;;;;;;26.21;33.36;99195.00;5053873;28;20283;-87
2021/07/01 08:52:28;;;;;;;0.40;0.30;;;;;;;25.91;33.27;99185.13;5020833;28;20234;-86
2021/07/01 08:55:00;;;;;;;1.48;0.40;;;;;;;25.63;33.68;99192.19;5054252;28;20236;-87
2021/07/01 08:57:35;;;;;;;0.95;0.25;;;;;;;25.10;34.45;99182.50;5054317;28;20232;-86
2021/07/01 09:00:10;;;;;;;0.28;0.28;;;;;;;24.91;35.03;99191.09;5021710;28;20251;-86
2021/07/01 09:02:43;;;;;;;1.52;0.45;;;;;;;24.38;35.99;99194.13;5020316;28;20311;-82
2021/07/01 09:05:17;;;;;;;0.60;0.40;;;;;;;24.40;35.87;99207.50;5037661;28;20253;-86
2021/07/01 09:07:51;;;;;;;1.23;0.30;;;;;;;24.46;35.63;99196.06;5052138;28;20217;-86
2021/07/01 09:10:20;;;;;;;0.35;0.30;;;;;;;24.11;36.28;99191.63;5000539;28;20233;-84
2021/07/01 09:13:10;;;;;;;0.28;0.28;;;;;;;24.29;36.59;99206.19;5016661;28;20222;-85
2021/07/01 09:15:37;;;;;;;1.20;0.30;;;;;;;24.37;36.30;99216.34;5000820;28;20226;-80
2021/07/01 09:18:06;;;;;;;0.40;0.38;;;;;;;24.36;36.17;99201.84;5017204;28;20228;-84
2021/07/01 09:20:37;;;;;;;1.37;0.30;;;;;;;24.33;36.08;99215.38;5017994;28;20233;-86
2021/07/01 09:23:06;;;;;;;0.47;0.30;;;;;;;24.24;36.88;99215.34;5001778;28;20243;-86
2021/07/01 09:25:34;;;;;;;1.50;0.33;;;;;;;24.54;35.52;99208.94;5017651;28;20813;-87
2021/07/01 09:28:01;;;;;;;0.90;0.30;;;;;;;24.42;35.50;99205.22;5001182;28;20234;-83
2021/07/01 09:30:30;;;;;;;0.80;0.30;;;;;;;24.75;35.48;99205.56;5033995;28;20229;-87
2021/07/01 09:33:00;;;;;;;2.70;0.40;;;;;;;25.46;34.31;99198.53;5017287;28;20237;-85
2021/07/01 09:35:28;;;;;;;2.10;0.47;;;;;;;25.52;33.98;99196.41;5017820;28;20229;-84
2021/07/01 09:37:55;;;;;;;1.45;0.40;;;;;;;26.04;33.60;99191.50;5043642;28;20640;-87
2021/07/01 09:40:23;;;;;;;1.58;0.30;;;;;;;26.13;34.29;99200.50;5053438;28;20232;-85
2021/07/01 09:42:59;;;;;;;0.45;0.30;;;;;;;26.25;33.59;99195.94;5017578;28;20241;-87
2021/07/01 09:45:27;;;;;;;1.02;0.40;;;;;;;25.69;34.27;99179.91;5016168;28;20221;-85
2021/07/01 09:48:15;;;;;;;0.38;0.30;;;;;;;26.11;34.08;99200.03;5053574;28;20228;-87
2021/07/01 09:50:47;;;;;;;0.47;0.30;;;;;;;26.20;33.94;99189.78;5037019;28;20229;-85
2021/07/01 09:53:28;;;;;;;0.57;0.30;;;;;;;26.56;33.90;99200.22;5021086;28;20225;-82
2021/07/01 09:55:55;;;;;;;1.05;0.30;;;;;;;26.47;32.49;99205.78;5054605;28;20527;-86
2021/07/01 09:58:29;;;;;;;0.20;0.20;;;;;;;26.59;31.99;99188.59;5036388;28;20308;-85
2021/07/01 10:00:56;;;;;;;0.20;0.20;;;;;;;26.33;32.87;99185.22;5054711;28;20639;-86
2021/07/01 10:03:23;;;;;;;0.68;0.30;;;;;;;25.43;34.52;99180.78;5023967;28;20245;-85
2021/07/01 10:05:50;;;;;;;0.32;0.30;;;;;;;25.11;35.12;99189.59;5054970;28;20214;-85
2021/07/01 10:08:17;;;;;;;1.02;0.40;;;;;;;24.96;35.78;99174.44;5024414;28;20217;-87
2021/07/01 10:10:48;;;;;;;0.20;0.20;;;;;;;24.98;35.04;99165.91;5036888;28;20642;-83
2021/07/01 10:13:18;;;;;;;0.22;0.22;;;;;;;24.89;36.50;99157.72;5053762;28;20233;-84
2021/07/01 10:15:47;;;;;;;0.73;0.50;;;;;;;25.05;35.28;99165.44;5056198;28;20287;-83
2021/07/01 10:18:17;;;;;;;0.40;0.40;;;;;;;24.95;35.75;99186.56;5033253;28;20605;-87
2021/07/01 10:20:56;;;;;;;0.90;0.30;;;;;;;25.16;35.35;99164.75;5038066;28;20271;-81
2021/07/01 10:23:27;;;;;;;1.02;0.40;;;;;;;25.16;35.30;99172.97;5028194;28;20324;-86
2021/07/01 10:26:10;;;;;;;0.30;0.30;;;;;;;25.33;34.61;99180.34;5056270;28;20218;-86
2021/07/01 10:28:37;;;;;;;0.98;0.40;;;;;;;25.19;34.48;99180.56;5023347;28;20230;-82
2021/07/01 10:31:11;;;;;;;1.60;0.35;;;;;;;25.89;34.37;99165.44;5051904;28;20261;-86
2021/07/01 10:33:40;;;;;;;0.68;0.30;;;;;;;26.15;33.68;99157.03;5026395;28;20243;-85
2021/07/01 10:36:15;;;;;;;0.35;0.28;;;;;;;26.58;32.85;99160.31;5037714;28;20569;-84
2021/07/01 10:38:51;;;;;;;1.42;0.30;;;;;;;26.24;33.58;99153.13;5023154;28;20227;-86
2021/07/01 10:41:35;;;;;;;0.60;0.35;;;;;;;26.32;34.18;99162.44;5023313;28;20226;-86
2021/07/01 10:44:03;;;;;;;1.02;0.30;;;;;;;26.20;33.14;99152.16;5039075;28;20525;-86
2021/07/01 10:46:36;;;;;;;0.65;0.22;;;;;;;25.95;34.00;99177.03;5039724;28;20607;-86
2021/07/01 10:49:03;;;;;;;0.45;0.30;;;;;;;25.86;34.57;99155.13;5057058;28;20312;-86
2021/07/01 10:51:58;;;;;;;0.30;0.30;;;;;;;25.97;34.88;99161.03;5055892;28;20283;-85
2021/07/01 10:54:25;;;;;;;0.45;0.32;;;;;;;26.05;35.84;99163.72;5055613;28;20244;-86
2021/07/01 10:57:08;;;;;;;0.30;0.30;;;;;;;26.18;34.64;99159.13;5024825;28;20256;-86
2021/07/01 10:59:52;;;;;;;1.17;0.38;;;;;;;26.09;34.62;99161.09;5039472;28;20640;-85
2021/07/01 11:02:30;;;;;;;0.30;0.30;;;;;;;26.32;35.50;99161.66;5022454;28;20232;-86
2021/07/01 11:04:59;;;;;;;0.43;0.30;;;;;;;26.53;34.89;99152.25;5022932;28;20245;-86
2021/07/01 11:07:27;;;;;;;0.30;0.30;;;;;;;26.57;33.96;99141.41;5039151;28;20276;-85
2021/07/01 11:09:59;;;;;;;1.17;0.40;;;;;;;26.46;34.64;99137.44;5039476;28;20576;-84
2021/07/01 11:12:27;;;;;;;0.75;0.30;;;;;;;26.90;33.43;99139.50;5054643;28;20554;-83
2021/07/01 11:14:56;;;;;;;0.55;0.25;;;;;;;26.73;33.76;99140.44;5045121;28;20282;-86
2021/07/01 11:17:37;;;;;;;0.95;0.30;;;;;;;26.70;32.58;99146.59;5038858;28;20219;-84
2021/07/01 11:20:31;;;;;;;0.40;0.30;;;;;;;26.74;32.94;99143.97;5055074;28;20232;-85
2021/07/01 11:22:58;;;;;;;1.38;0.38;;;;;;;26.89;32.88;99134.31;5054644;28;20229;-84
2021/07/01 11:25:34;;;;;;;0.35;0.30;;;;;;;26.80;31.88;99133.59;5055352;28;20222;-86
2021/07/01 11:28:14;;;;;;;0.30;0.30;;;;;;;27.14;32.09;99145.06;5056086;28;20240;-85
2021/07/01 11:30:54;;;;;;;0.68;0.30;;;;;;;27.16;32.05;99131.75;5039449;28;20300;-82
2021/07/01 11:33:22;;;;;;;0.30;0.30;;;;;;;27.06;32.18;99134.16;5027223;28;20248;-86
2021/07/01 11:35:49;;;;;;;0.60;0.30;;;;;;;27.16;31.77;99119.97;5019189;28;20302;-85
2021/07/01 11:38:30;;;;;;;0.20;0.20;;;;;;;27.31;31.79;99124.78;5002073;28;20552;-85
2021/07/01 11:41:00;;;;;;;0.20;0.20;;;;;;;27.62;30.95;99110.53;5044918;28;20258;-83
2021/07/01 11:43:28;;;;;;;0.30;0.30;;;;;;;28.25;30.29;99116.41;5038456;28;20232;-85
2021/07/01 11:45:55;;;;;;;1.65;0.30;;;;;;;28.29;30.12;99125.56;5054945;28;20312;-85
2021/07/01 11:48:24;;;;;;;0.30;0.30;;;;;;;27.97;30.37;99130.09;5037872;28;20257;-81
2021/07/01 11:50:52;;;;;;;1.00;0.30;;;;;;;28.30;29.91;99124.44;5038432;28;20312;-85
2021/07/01 11:53:20;;;;;;;0.30;0.20;;;;;;;28.68;29.34;99129.47;5054697;28;20227;-84
2021/07/01 11:55:48;;;;;;;0.45;0.25;;;;;;;28.20;30.19;99138.69;5038366;28;20224;-84
2021/07/01 11:58:16;;;;;;;0.90;0.20;;;;;;;28.04;29.06;99122.84;5037722;28;20617;-85
2021/07/01 12:00:43;;;;;;;0.98;0.20;;;;;;;27.89;29.87;99122.78;5054927;28;20259;-84
2021/07/01 12:03:12;;;;;;;0.25;0.25;;;;;;;27.83;30.22;99129.66;5038153;28;20243;-85